Time;durP1;ratioP1;P1;durP2;ratioP2;P2;SDS_P1;SDS_P2;PMS_P1;PMS_P2;Temp;Humidity;BMP_temperature;BMP_pressure;BME280_temperature;BME280_humidity;BME280_pressure;Samples;Min_cycle;Max_cycle;Signal;HPM_P1;HPM_P2
2023/05/12 00:00:03;;;;;;;80.88;39.72;;;;;;;-146.25;100.00;52368.19;2088330;28;31988;-61
2023/05/12 00:01:15;;;;;;;85.07;39.17;;;;;;;-146.25;100.00;52380.38;2089130;28;20944;-62
2023/05/12 00:02:17;;;;;;;82.05;39.65;;;;;;;-146.25;100.00;52376.31;2088823;28;28117;-62
2023/05/12 00:03:18;;;;;;;86.10;41.17;;;;;;;-146.25;100.00;52349.94;2088279;28;36325;-61
2023/05/12 00:04:20;;;;;;;82.97;39.38;;;;;;;-146.25;100.00;52364.13;2088147;28;37653;-61
2023/05/12 00:05:22;;;;;;;91.63;41.30;;;;;;;-146.25;100.00;52380.38;2088278;28;32570;-62
2023/05/12 00:06:24;;;;;;;74.75;38.40;;;;;;;-146.25;100.00;52374.28;2088280;28;38226;-62
2023/05/12 00:07:31;;;;;;;81.30;39.85;;;;;;;-146.25;100.00;52358.06;2088016;28;37226;-62
2023/05/12 00:08:33;;;;;;;83.35;40.58;;;;;;;-146.25;100.00;52406.72;2088443;28;32833;-61
2023/05/12 00:09:36;;;;;;;87.57;41.40;;;;;;;-146.25;100.00;52406.72;2088126;28;37580;-62
2023/05/12 00:10:38;;;;;;;81.50;40.15;;;;;;;-146.25;100.00;52368.19;2088449;28;32415;-61
2023/05/12 00:11:40;;;;;;;81.20;39.00;;;;;;;-146.25;100.00;52366.16;2088006;28;33763;-61
2023/05/12 00:12:41;;;;;;;81.78;39.80;;;;;;;-146.25;100.00;52388.47;2088180;28;36813;-62
2023/05/12 00:13:43;;;;;;;80.20;38.70;;;;;;;-146.25;100.00;52364.13;2088149;28;35191;-61
2023/05/12 00:14:45;;;;;;;76.82;38.08;;;;;;;-146.25;100.00;52343.88;2088579;28;32451;-61
2023/05/12 00:15:47;;;;;;;77.82;37.95;;;;;;;-146.25;100.00;52354.00;2088823;28;32343;-62
2023/05/12 00:16:50;;;;;;;83.50;39.00;;;;;;;-146.25;100.00;52368.19;2088297;28;37015;-62
2023/05/12 00:17:52;;;;;;;80.47;38.97;;;;;;;-146.25;100.00;52364.13;2088115;28;37103;-61
2023/05/12 00:18:54;;;;;;;76.47;37.33;;;;;;;-146.25;100.00;52392.53;2088395;28;33720;-62
2023/05/12 00:19:56;;;;;;;74.80;36.92;;;;;;;-146.25;100.00;52368.19;2087894;28;33677;-61
2023/05/12 00:20:57;;;;;;;77.50;36.75;;;;;;;-146.25;100.00;52396.59;2089211;28;20370;-62
2023/05/12 00:21:59;;;;;;;76.75;37.35;;;;;;;-146.25;100.00;52349.94;2087929;28;33953;-61
2023/05/12 00:23:01;;;;;;;73.28;37.90;;;;;;;-146.25;100.00;52390.50;2088243;28;33892;-61
2023/05/12 00:24:03;;;;;;;68.15;35.17;;;;;;;-146.25;100.00;52396.59;2088583;28;20048;-61
2023/05/12 00:25:05;;;;;;;80.60;38.65;;;;;;;-146.25;100.00;52366.16;2088665;28;38391;-61
2023/05/12 00:26:07;;;;;;;67.68;33.55;;;;;;;-146.25;100.00;52398.59;2088255;28;35625;-61
2023/05/12 00:27:09;;;;;;;73.18;36.70;;;;;;;-146.25;100.00;52380.38;2088371;28;34661;-61
2023/05/12 00:28:11;;;;;;;76.72;37.20;;;;;;;-146.25;100.00;52354.00;2086989;28;36140;-61
2023/05/12 00:29:15;;;;;;;79.57;39.33;;;;;;;-146.25;100.00;52386.44;2088614;28;20045;-61
2023/05/12 00:30:17;;;;;;;84.07;38.60;;;;;;;-146.25;100.00;52366.16;2088190;28;31176;-61
2023/05/12 00:31:19;;;;;;;66.10;33.33;;;;;;;-146.25;100.00;52376.31;2087908;28;23574;-61
2023/05/12 00:32:21;;;;;;;65.05;33.05;;;;;;;-146.25;100.00;52362.13;2087813;28;25806;-62
2023/05/12 00:33:23;;;;;;;68.95;34.50;;;;;;;-146.25;100.00;52388.47;2087796;28;29746;-62
2023/05/12 00:34:27;;;;;;;67.07;33.28;;;;;;;-146.25;100.00;52335.75;2087767;28;28356;-62
2023/05/12 00:35:28;;;;;;;71.70;34.13;;;;;;;-146.25;100.00;52396.59;2087897;28;29254;-61
2023/05/12 00:36:30;;;;;;;69.70;34.20;;;;;;;-146.25;100.00;52396.59;2087551;28;32300;-62
2023/05/12 00:37:34;;;;;;;78.25;36.28;;;;;;;-146.25;100.00;52378.34;2089491;28;20030;-62
2023/05/12 00:38:36;;;;;;;71.93;36.17;;;;;;;-146.25;100.00;52378.34;2087744;28;33689;-62
2023/05/12 00:39:38;;;;;;;74.50;35.05;;;;;;;-146.25;100.00;52433.06;2088384;28;35282;-61
2023/05/12 00:40:40;;;;;;;71.70;34.95;;;;;;;-146.25;100.00;52394.56;2088762;28;20840;-61
2023/05/12 00:41:42;;;;;;;79.05;37.40;;;;;;;-146.25;100.00;52337.78;2088549;28;28541;-61
2023/05/12 00:42:44;;;;;;;90.38;39.95;;;;;;;-146.25;100.00;52347.91;2088681;28;20046;-61
2023/05/12 00:43:46;;;;;;;84.50;37.75;;;;;;;-146.25;100.00;52386.44;2095760;28;28763;-61
2023/05/12 00:44:50;;;;;;;78.40;37.70;;;;;;;-146.25;100.00;52374.28;2096279;28;27534;-62
2023/05/12 00:45:52;;;;;;;82.57;36.20;;;;;;;-146.25;100.00;52400.63;2087315;28;33335;-61
2023/05/12 00:46:54;;;;;;;78.28;36.42;;;;;;;-146.25;100.00;52345.91;2087965;28;20056;-62
2023/05/12 00:47:56;;;;;;;85.28;37.90;;;;;;;-146.25;100.00;52337.78;2096606;28;20079;-62
2023/05/12 00:49:00;;;;;;;74.32;34.35;;;;;;;-146.25;100.00;52347.91;2087938;28;20038;-62
2023/05/12 00:50:07;;;;;;;73.95;35.28;;;;;;;-146.25;100.00;52398.59;2087790;28;36071;-62
2023/05/12 00:51:09;;;;;;;75.22;34.50;;;;;;;-146.25;100.00;52354.00;2088658;28;28021;-62
2023/05/12 00:52:11;;;;;;;75.10;35.28;;;;;;;-146.25;100.00;52372.25;2088357;28;27953;-61
2023/05/12 00:53:13;;;;;;;73.93;33.75;;;;;;;-146.25;100.00;52368.19;2087305;28;31891;-61
2023/05/12 00:54:16;;;;;;;69.88;32.65;;;;;;;-146.25;100.00;52388.47;2088176;28;20045;-61
2023/05/12 00:55:17;;;;;;;61.42;30.63;;;;;;;-146.25;100.00;52370.22;2079823;28;20038;-62
2023/05/12 00:56:22;;;;;;;66.25;31.83;;;;;;;-146.25;100.00;52380.38;2071686;28;22909;-61
2023/05/12 00:57:26;;;;;;;73.22;33.65;;;;;;;-146.25;100.00;52370.22;2080044;28;20050;-62
2023/05/12 00:58:29;;;;;;;61.47;31.98;;;;;;;-146.25;100.00;52384.41;2081062;28;20228;-61
2023/05/12 00:59:31;;;;;;;68.13;33.22;;;;;;;-146.25;100.00;52372.25;2088248;28;20814;-62
2023/05/12 01:00:33;;;;;;;76.97;34.45;;;;;;;-146.25;100.00;52388.47;2088025;28;20041;-62
2023/05/12 01:01:35;;;;;;;84.05;36.35;;;;;;;-146.25;100.00;52404.69;2087821;28;20966;-62
2023/05/12 01:02:38;;;;;;;80.30;34.70;;;;;;;-146.25;100.00;52388.47;2088165;28;20908;-62
2023/05/12 01:03:39;;;;;;;62.15;31.13;;;;;;;-146.25;100.00;52384.41;2088379;28;20079;-62
2023/05/12 01:04:41;;;;;;;67.70;32.75;;;;;;;-146.25;100.00;52370.22;2096050;28;23759;-61
2023/05/12 01:06:16;;;;;;;71.97;33.20;;;;;;;-146.25;100.00;52392.53;2095966;28;24052;-62
2023/05/12 01:07:21;;;;;;;55.78;27.92;;;;;;;-146.25;100.00;52360.09;2091527;28;20136;-62
2023/05/12 01:08:24;;;;;;;68.63;30.73;;;;;;;-146.25;100.00;52394.56;2087910;28;20933;-62
2023/05/12 01:09:26;;;;;;;60.83;30.25;;;;;;;-146.25;100.00;52394.56;2078909;28;28629;-61
2023/05/12 01:10:29;;;;;;;66.22;32.72;;;;;;;-146.25;100.00;52402.66;2079761;28;20065;-62
2023/05/12 01:11:31;;;;;;;64.03;30.52;;;;;;;-146.25;100.00;52437.13;2079616;28;20092;-62
2023/05/12 01:12:33;;;;;;;73.95;32.05;;;;;;;-146.25;100.00;52408.75;2079769;28;21050;-62
2023/05/12 01:13:38;;;;;;;58.78;29.73;;;;;;;-146.25;100.00;52416.84;2079490;28;20050;-62
2023/05/12 01:14:41;;;;;;;69.85;32.22;;;;;;;-146.25;100.00;52380.38;2087892;28;20042;-62
2023/05/12 01:15:47;;;;;;;70.97;33.53;;;;;;;-146.25;100.00;52388.47;2096321;28;20049;-62
2023/05/12 01:16:58;;;;;;;64.65;30.75;;;;;;;-146.25;100.00;52390.50;2087957;28;21110;-62
2023/05/12 01:18:05;;;;;;;66.60;30.60;;;;;;;-146.25;100.00;52372.25;2073670;28;21011;-62
2023/05/12 01:19:18;;;;;;;59.53;30.38;;;;;;;-146.25;100.00;52414.84;2072238;28;20054;-61
2023/05/12 01:20:24;;;;;;;54.63;28.20;;;;;;;-146.25;100.00;52392.53;2082179;28;20920;-61
2023/05/12 01:21:26;;;;;;;55.38;28.45;;;;;;;-146.25;100.00;52376.31;2079759;28;20057;-61
2023/05/12 01:22:32;;;;;;;61.38;30.30;;;;;;;-146.25;100.00;52364.13;2080617;28;20092;-62
2023/05/12 01:23:41;;;;;;;64.30;30.17;;;;;;;-146.25;100.00;52410.78;2080183;28;20789;-62
2023/05/12 01:25:06;;;;;;;69.72;30.77;;;;;;;-146.25;100.00;52380.38;2079539;28;20054;-62
2023/05/12 01:26:10;;;;;;;56.45;28.70;;;;;;;-146.25;100.00;52380.38;2079093;28;20907;-62
2023/05/12 01:27:16;;;;;;;54.50;27.95;;;;;;;-146.25;100.00;52384.41;2079847;28;20046;-62
2023/05/12 01:28:20;;;;;;;73.03;31.17;;;;;;;-146.25;100.00;52360.09;2079583;28;20046;-61
2023/05/12 01:29:23;;;;;;;76.57;33.13;;;;;;;-146.25;100.00;52396.59;2072443;28;20050;-62
2023/05/12 01:30:25;;;;;;;73.72;32.33;;;;;;;-146.25;100.00;52362.13;2079604;28;20168;-62
2023/05/12 01:31:29;;;;;;;62.35;28.48;;;;;;;-146.25;100.00;52376.31;2087598;28;20037;-61
2023/05/12 01:32:32;;;;;;;82.93;34.38;;;;;;;-146.25;100.00;52378.34;2088422;28;20866;-62
2023/05/12 01:33:35;;;;;;;69.15;30.98;;;;;;;-146.25;100.00;52431.06;2088043;28;20187;-61
2023/05/12 01:34:37;;;;;;;60.92;28.92;;;;;;;-146.25;100.00;52400.63;2079901;28;20049;-62
2023/05/12 01:35:38;;;;;;;70.25;30.38;;;;;;;-146.25;100.00;52398.59;2079523;28;28533;-61
2023/05/12 01:36:42;;;;;;;54.80;29.10;;;;;;;-146.25;100.00;52396.59;2079544;28;20156;-62
2023/05/12 01:37:45;;;;;;;60.97;27.02;;;;;;;-146.25;100.00;52358.06;2080033;28;20966;-61
2023/05/12 01:38:47;;;;;;;69.78;30.08;;;;;;;-146.25;100.00;52396.59;2079274;28;20119;-61
2023/05/12 01:39:51;;;;;;;72.43;33.05;;;;;;;-146.25;100.00;52368.19;2087978;28;20208;-61
2023/05/12 01:40:55;;;;;;;61.40;29.42;;;;;;;-146.25;100.00;52382.38;2087837;28;20855;-61
2023/05/12 01:41:57;;;;;;;61.00;28.80;;;;;;;-146.25;100.00;52374.28;2079472;28;20034;-61
2023/05/12 01:42:58;;;;;;;51.67;25.23;;;;;;;-146.25;100.00;52406.72;2079470;28;20287;-61
2023/05/12 01:44:04;;;;;;;51.90;26.48;;;;;;;-146.25;100.00;52447.28;2080185;28;20108;-61
2023/05/12 01:45:07;;;;;;;56.53;28.58;;;;;;;-146.25;100.00;52386.44;2080237;28;20088;-61
2023/05/12 01:46:09;;;;;;;59.83;28.17;;;;;;;-146.25;100.00;52368.19;2080155;28;20189;-61
2023/05/12 01:47:14;;;;;;;62.13;28.15;;;;;;;-146.25;100.00;52416.84;2087862;28;20434;-61
2023/05/12 01:48:23;;;;;;;67.22;29.52;;;;;;;-146.25;100.00;52406.72;2096356;28;20099;-61
2023/05/12 01:49:25;;;;;;;67.95;29.60;;;;;;;-146.25;100.00;52386.44;2087521;28;20054;-61
2023/05/12 01:50:27;;;;;;;66.15;29.70;;;;;;;-146.25;100.00;52408.75;2079500;28;20117;-61
2023/05/12 01:51:29;;;;;;;62.83;30.98;;;;;;;-146.25;100.00;52388.47;2087750;28;20033;-61
2023/05/12 01:52:34;;;;;;;70.85;31.15;;;;;;;-146.25;100.00;52335.75;2095593;28;20053;-61
2023/05/12 01:53:37;;;;;;;65.00;28.27;;;;;;;-146.25;100.00;52396.59;2079740;28;20046;-61
2023/05/12 01:54:39;;;;;;;71.60;31.42;;;;;;;-146.25;100.00;52364.13;2087741;28;20788;-61
2023/05/12 01:55:42;;;;;;;72.60;30.25;;;;;;;-146.25;100.00;52368.19;2087443;28;20124;-63
2023/05/12 01:56:43;;;;;;;69.05;30.00;;;;;;;-146.25;100.00;52404.69;2079842;28;20046;-61
2023/05/12 01:57:48;;;;;;;60.58;28.58;;;;;;;-146.25;100.00;52392.53;2079152;28;20069;-61
2023/05/12 01:58:50;;;;;;;68.72;30.98;;;;;;;-146.25;100.00;52376.31;2088339;28;20052;-61
2023/05/12 01:59:52;;;;;;;77.28;31.58;;;;;;;-146.25;100.00;52366.16;2087419;28;20162;-61
2023/05/12 02:00:53;;;;;;;74.70;30.75;;;;;;;-146.25;100.00;52368.19;2078935;28;20764;-61
2023/05/12 02:01:55;;;;;;;79.72;31.60;;;;;;;-146.25;100.00;52386.44;2087635;28;20042;-60
2023/05/12 02:03:03;;;;;;;82.40;32.33;;;;;;;-146.25;100.00;52424.97;2087580;28;20146;-61
2023/05/12 02:04:07;;;;;;;78.43;31.02;;;;;;;-146.25;100.00;52382.38;2079387;28;21020;-60
2023/05/12 02:05:11;;;;;;;72.78;29.45;;;;;;;-146.25;100.00;52380.38;2079964;28;20887;-61
2023/05/12 02:06:14;;;;;;;64.20;28.55;;;;;;;-146.25;100.00;52424.97;2079558;28;20078;-61
2023/05/12 02:07:16;;;;;;;60.08;28.75;;;;;;;-146.25;100.00;52386.44;2087601;28;20933;-61
2023/05/12 02:08:19;;;;;;;67.35;28.88;;;;;;;-146.25;100.00;52400.63;2087867;28;20096;-61
2023/05/12 02:09:23;;;;;;;72.68;29.23;;;;;;;-146.25;100.00;52372.25;2078546;28;20050;-61
2023/05/12 02:10:29;;;;;;;70.75;30.25;;;;;;;-146.25;100.00;52386.44;2079032;28;20034;-61
2023/05/12 02:11:30;;;;;;;65.75;30.33;;;;;;;-146.25;100.00;52374.28;2078995;28;20096;-62
2023/05/12 02:12:33;;;;;;;71.70;31.08;;;;;;;-146.25;100.00;52392.53;2078880;28;20049;-61
2023/05/12 02:13:35;;;;;;;62.78;28.42;;;;;;;-146.25;100.00;52398.59;2079498;28;20034;-61
2023/05/12 02:14:37;;;;;;;70.32;30.25;;;;;;;-146.25;100.00;52408.75;2079194;28;20045;-61
2023/05/12 02:15:41;;;;;;;60.38;28.80;;;;;;;-146.25;100.00;52386.44;2088085;28;20037;-61
2023/05/12 02:16:43;;;;;;;78.13;31.70;;;;;;;-146.25;100.00;52406.72;2087478;28;20163;-61
2023/05/12 02:17:52;;;;;;;62.97;28.92;;;;;;;-146.25;100.00;52335.75;2087594;28;20822;-61
2023/05/12 02:18:55;;;;;;;75.50;30.25;;;;;;;-146.25;100.00;52384.41;2080489;28;20042;-61
2023/05/12 02:19:56;;;;;;;59.15;28.38;;;;;;;-146.25;100.00;52392.53;2087697;28;25112;-61
2023/05/12 02:20:58;;;;;;;59.30;28.45;;;;;;;-146.25;100.00;52424.97;2087540;28;20869;-61
2023/05/12 02:22:00;;;;;;;70.22;30.67;;;;;;;-146.25;100.00;52422.94;2079116;28;26165;-61
2023/05/12 02:23:02;;;;;;;60.88;27.98;;;;;;;-146.25;100.00;52388.47;2079163;28;20050;-61
2023/05/12 02:24:05;;;;;;;58.75;27.65;;;;;;;-146.25;100.00;52422.94;2079223;28;20127;-61
2023/05/12 02:25:08;;;;;;;65.78;29.13;;;;;;;-146.25;100.00;52382.38;2079150;28;20196;-61
2023/05/12 02:26:10;;;;;;;65.43;29.15;;;;;;;-146.25;100.00;52410.78;2071530;28;20233;-61
2023/05/12 02:27:12;;;;;;;63.60;28.10;;;;;;;-146.25;100.00;52457.41;2080809;28;20145;-61
2023/05/12 02:28:15;;;;;;;63.10;28.17;;;;;;;-146.25;100.00;52416.84;2080864;28;20105;-60
2023/05/12 02:29:17;;;;;;;65.50;29.10;;;;;;;-146.25;100.00;52376.31;2088818;28;20944;-62
2023/05/12 02:30:19;;;;;;;83.38;34.20;;;;;;;-146.25;100.00;52372.25;2080791;28;20835;-61
2023/05/12 02:31:21;;;;;;;60.38;27.13;;;;;;;-146.25;100.00;52408.75;2072773;28;20038;-61
2023/05/12 02:32:26;;;;;;;77.90;31.00;;;;;;;-146.25;100.00;52400.63;2088610;28;20061;-61
2023/05/12 02:33:29;;;;;;;66.68;27.95;;;;;;;-146.25;100.00;52388.47;2079857;28;34562;-62
2023/05/12 02:34:33;;;;;;;62.50;27.38;;;;;;;-146.25;100.00;52437.13;2080527;28;20181;-62
2023/05/12 02:35:36;;;;;;;57.08;26.08;;;;;;;-146.25;100.00;52447.28;2088399;28;20033;-61
2023/05/12 02:36:38;;;;;;;69.72;29.25;;;;;;;-146.25;100.00;52398.59;2089243;28;20163;-61
2023/05/12 02:37:39;;;;;;;105.10;31.77;;;;;;;-146.25;100.00;52414.84;2080215;28;24733;-61
2023/05/12 02:38:41;;;;;;;80.60;31.25;;;;;;;-146.25;100.00;52441.19;2080456;28;20126;-61
2023/05/12 02:39:43;;;;;;;87.95;31.42;;;;;;;-146.25;100.00;52398.59;2080510;28;20038;-61
2023/05/12 02:40:45;;;;;;;95.63;31.83;;;;;;;-146.25;100.00;52420.91;2088611;28;32469;-62
2023/05/12 02:41:48;;;;;;;148.70;36.10;;;;;;;-146.25;100.00;52398.59;2088563;28;20944;-61
2023/05/12 02:42:50;;;;;;;264.92;39.85;;;;;;;-146.25;100.00;52412.81;2088607;28;20776;-61
2023/05/12 02:43:52;;;;;;;138.80;35.83;;;;;;;-146.25;100.00;52388.47;2087675;28;36453;-61
2023/05/12 02:44:54;;;;;;;135.27;32.50;;;;;;;-146.25;100.00;52394.56;2081467;28;20035;-61
2023/05/12 02:45:56;;;;;;;142.40;35.60;;;;;;;-146.25;100.00;52376.31;2088721;28;20046;-62
2023/05/12 02:46:58;;;;;;;194.43;34.30;;;;;;;-146.25;100.00;52408.75;2088927;28;20946;-61
2023/05/12 02:47:59;;;;;;;439.30;44.75;;;;;;;-146.25;100.00;52366.16;2081172;28;20827;-61
2023/05/12 02:49:03;;;;;;;234.48;38.88;;;;;;;-146.25;100.00;52347.91;2088776;28;20042;-61
2023/05/12 02:50:06;;;;;;;169.75;37.10;;;;;;;-146.25;100.00;52420.91;2088291;28;28968;-61
2023/05/12 02:51:08;;;;;;;249.60;35.30;;;;;;;-146.25;100.00;52416.84;2080448;28;20049;-62
2023/05/12 02:52:10;;;;;;;211.40;35.63;;;;;;;-146.25;100.00;52388.47;2088712;28;20802;-61
2023/05/12 02:53:12;;;;;;;185.70;36.83;;;;;;;-146.25;100.00;52396.59;2080916;28;20093;-61
2023/05/12 02:54:13;;;;;;;194.48;37.78;;;;;;;-146.25;100.00;52412.81;2080320;28;20042;-61
2023/05/12 02:55:15;;;;;;;113.82;32.95;;;;;;;-146.25;100.00;52368.19;2080758;28;20050;-61
2023/05/12 02:56:17;;;;;;;103.13;32.75;;;;;;;-146.25;100.00;52362.13;2080445;28;20192;-61
2023/05/12 02:57:19;;;;;;;209.52;34.63;;;;;;;-146.25;100.00;52404.69;2080465;28;27609;-61
2023/05/12 02:58:23;;;;;;;156.90;34.33;;;;;;;-146.25;100.00;52390.50;2087953;28;30732;-61
2023/05/12 02:59:25;;;;;;;162.50;34.10;;;;;;;-146.25;100.00;52394.56;2096826;28;20049;-61
2023/05/12 03:00:29;;;;;;;186.88;35.53;;;;;;;-146.25;100.00;52388.47;2089381;28;20041;-61
2023/05/12 03:01:31;;;;;;;151.02;32.15;;;;;;;-146.25;100.00;52368.19;2096835;28;20076;-61
2023/05/12 03:02:34;;;;;;;273.23;35.40;;;;;;;-146.25;100.00;52416.84;2096955;28;20458;-60
2023/05/12 03:03:40;;;;;;;182.88;36.22;;;;;;;-146.25;100.00;52388.47;2089130;28;24993;-65
2023/05/12 03:04:42;;;;;;;236.05;33.15;;;;;;;-146.25;100.00;52420.91;2096870;28;20053;-61
2023/05/12 03:05:44;;;;;;;166.50;35.30;;;;;;;-146.25;100.00;52431.06;2097400;28;20127;-61
2023/05/12 03:06:46;;;;;;;330.40;37.75;;;;;;;-146.25;100.00;52420.91;2088779;28;20030;-61
2023/05/12 03:07:50;;;;;;;304.88;37.03;;;;;;;-146.25;100.00;52388.47;2088752;28;20049;-61
2023/05/12 03:08:54;;;;;;;180.85;34.13;;;;;;;-146.25;100.00;52380.38;2088494;28;21717;-61
2023/05/12 03:10:00;;;;;;;181.85;31.00;;;;;;;-146.25;100.00;52408.75;2088528;28;22806;-61
2023/05/12 03:11:02;;;;;;;279.30;33.83;;;;;;;-146.25;100.00;52368.19;2088140;28;20923;-60
2023/05/12 03:12:05;;;;;;;223.38;34.08;;;;;;;-146.25;100.00;52400.63;2088692;28;20045;-61
2023/05/12 03:13:07;;;;;;;215.57;33.53;;;;;;;-146.25;100.00;52410.78;2087917;28;20079;-61
2023/05/12 03:14:09;;;;;;;135.20;31.05;;;;;;;-146.25;100.00;52378.34;2088812;28;20960;-61
2023/05/12 03:15:11;;;;;;;152.77;30.60;;;;;;;-146.25;100.00;52384.41;2097263;28;20049;-62
2023/05/12 03:16:13;;;;;;;204.63;33.70;;;;;;;-146.25;100.00;52392.53;2097148;28;20899;-62
2023/05/12 03:17:15;;;;;;;202.18;31.30;;;;;;;-146.25;100.00;52416.84;2089162;28;20657;-62
2023/05/12 03:18:16;;;;;;;248.10;35.95;;;;;;;-146.25;100.00;52408.75;2089384;28;20045;-62
2023/05/12 03:19:18;;;;;;;188.65;32.97;;;;;;;-146.25;100.00;52392.53;2088868;28;27319;-62
2023/05/12 03:20:20;;;;;;;219.65;37.95;;;;;;;-146.25;100.00;52402.66;2089185;28;20040;-62
2023/05/12 03:21:22;;;;;;;216.75;38.88;;;;;;;-146.25;100.00;52394.56;2088832;28;20907;-62
2023/05/12 03:22:26;;;;;;;386.60;42.70;;;;;;;-146.25;100.00;52392.53;2080480;28;20034;-62
2023/05/12 03:23:27;;;;;;;254.65;40.85;;;;;;;-146.25;100.00;52364.13;2080335;28;27529;-62
2023/05/12 03:24:30;;;;;;;322.77;41.35;;;;;;;-146.25;100.00;52382.38;2096721;28;20164;-62
2023/05/12 03:25:33;;;;;;;291.77;41.33;;;;;;;-146.25;100.00;52390.50;2096897;28;20894;-62
2023/05/12 03:26:35;;;;;;;270.65;36.42;;;;;;;-146.25;100.00;52422.94;2096650;28;28322;-62
2023/05/12 03:27:37;;;;;;;269.60;37.85;;;;;;;-146.25;100.00;52374.28;2088075;28;20044;-62
2023/05/12 03:28:39;;;;;;;149.65;34.92;;;;;;;-146.25;100.00;52394.56;2080407;28;20867;-62
2023/05/12 03:29:41;;;;;;;205.85;38.55;;;;;;;-146.25;100.00;52398.59;2088519;28;20049;-62
2023/05/12 03:30:45;;;;;;;334.83;39.55;;;;;;;-146.25;100.00;52370.22;2088294;28;20045;-62
2023/05/12 03:31:47;;;;;;;232.98;40.55;;;;;;;-146.25;100.00;52396.59;2088902;28;20045;-62
2023/05/12 03:32:51;;;;;;;455.05;43.28;;;;;;;-146.25;100.00;52412.81;2088619;28;20053;-62
2023/05/12 03:33:55;;;;;;;616.28;48.35;;;;;;;-146.25;100.00;52414.84;2088473;28;20843;-62
2023/05/12 03:34:57;;;;;;;599.60;47.03;;;;;;;-146.25;100.00;52394.56;2096828;28;20041;-61
2023/05/12 03:35:59;;;;;;;123.30;35.67;;;;;;;-146.25;100.00;52390.50;2096734;28;20029;-62
2023/05/12 03:37:01;;;;;;;112.80;35.22;;;;;;;-146.25;100.00;52394.56;2088077;28;20033;-62
2023/05/12 03:38:02;;;;;;;138.20;36.50;;;;;;;-146.25;100.00;52392.53;2096616;28;20049;-62
2023/05/12 03:39:04;;;;;;;170.90;40.80;;;;;;;-146.25;100.00;52400.63;2096699;28;20033;-62
2023/05/12 03:40:10;;;;;;;210.68;38.95;;;;;;;-146.25;100.00;52354.00;2088041;28;20920;-62
2023/05/12 03:41:12;;;;;;;142.55;39.75;;;;;;;-146.25;100.00;52418.88;2079735;28;23509;-62
2023/05/12 03:42:14;;;;;;;199.93;40.33;;;;;;;-146.25;100.00;52406.72;2080367;28;20049;-62
2023/05/12 03:43:16;;;;;;;224.60;40.35;;;;;;;-146.25;100.00;52412.81;2088794;28;20049;-62
2023/05/12 03:44:17;;;;;;;257.95;41.00;;;;;;;-146.25;100.00;52394.56;2088316;28;20377;-62
2023/05/12 03:45:20;;;;;;;274.58;40.55;;;;;;;-146.25;100.00;52380.38;2088688;28;20030;-62
2023/05/12 03:46:22;;;;;;;181.93;37.83;;;;;;;-146.25;100.00;52392.53;2096620;28;20056;-62
2023/05/12 03:47:24;;;;;;;196.25;38.47;;;;;;;-146.25;100.00;52429.03;2096132;28;31738;-62
2023/05/12 03:48:29;;;;;;;172.63;38.15;;;;;;;-146.25;100.00;52394.56;2096635;28;20037;-62
2023/05/12 03:49:30;;;;;;;218.88;40.13;;;;;;;-146.25;100.00;52347.91;2088420;28;21268;-62
2023/05/12 03:50:32;;;;;;;274.92;43.05;;;;;;;-146.25;100.00;52392.53;2088359;28;20038;-62
2023/05/12 03:51:34;;;;;;;203.00;39.58;;;;;;;-146.25;100.00;52402.66;2088575;28;20937;-62
2023/05/12 03:52:37;;;;;;;173.95;38.13;;;;;;;-146.25;100.00;52406.72;2088220;28;20045;-62
2023/05/12 03:53:43;;;;;;;155.25;37.40;;;;;;;-146.25;100.00;52400.63;2089206;28;20826;-62
2023/05/12 03:54:49;;;;;;;178.77;40.67;;;;;;;-146.25;100.00;52400.63;2087905;28;20045;-62
2023/05/12 03:55:51;;;;;;;197.98;39.47;;;;;;;-146.25;100.00;52398.59;2088402;28;23021;-62
2023/05/12 03:56:52;;;;;;;131.00;40.92;;;;;;;-146.25;100.00;52380.38;2087675;28;24666;-62
2023/05/12 03:57:54;;;;;;;105.13;35.92;;;;;;;-146.25;100.00;52418.88;2088680;28;20049;-62
2023/05/12 03:58:56;;;;;;;116.90;37.22;;;;;;;-146.25;100.00;52408.75;2088350;28;20134;-62
2023/05/12 03:59:58;;;;;;;99.85;35.00;;;;;;;-146.25;100.00;52394.56;2080648;28;20931;-62
2023/05/12 04:01:02;;;;;;;122.35;38.75;;;;;;;-146.25;100.00;52370.22;2088352;28;20038;-61
2023/05/12 04:02:06;;;;;;;104.78;36.30;;;;;;;-146.25;100.00;52414.84;2088872;28;20200;-62
2023/05/12 04:03:08;;;;;;;102.07;36.28;;;;;;;-146.25;100.00;52390.50;2087678;28;26283;-62
2023/05/12 04:04:10;;;;;;;97.32;36.80;;;;;;;-146.25;100.00;52339.81;2088161;28;21634;-62
2023/05/12 04:05:12;;;;;;;107.72;39.78;;;;;;;-146.25;100.00;52386.44;2088116;28;20038;-62
2023/05/12 04:06:14;;;;;;;118.72;40.53;;;;;;;-146.25;100.00;52418.88;2088161;28;28445;-62
2023/05/12 04:07:16;;;;;;;94.97;35.60;;;;;;;-146.25;100.00;52412.81;2088161;28;20152;-62
2023/05/12 04:08:17;;;;;;;100.95;38.38;;;;;;;-146.25;100.00;52398.59;2087925;28;22604;-62
2023/05/12 04:09:20;;;;;;;88.18;35.63;;;;;;;-146.25;100.00;52414.84;2096148;28;20033;-62
2023/05/12 04:10:21;;;;;;;103.38;38.20;;;;;;;-146.25;100.00;52412.81;2096092;28;24291;-62
2023/05/12 04:11:26;;;;;;;101.93;38.90;;;;;;;-146.25;100.00;52424.97;2096246;28;20095;-62
2023/05/12 04:12:27;;;;;;;102.00;38.90;;;;;;;-146.25;100.00;52386.44;2096582;28;20163;-62
2023/05/12 04:13:30;;;;;;;90.78;37.05;;;;;;;-146.25;100.00;52368.19;2096830;28;20106;-62
2023/05/12 04:14:32;;;;;;;82.47;35.13;;;;;;;-146.25;100.00;52368.19;2088538;28;21355;-62
2023/05/12 04:15:46;;;;;;;96.22;38.10;;;;;;;-146.25;100.00;52382.38;2089354;28;20119;-62
2023/05/12 04:16:48;;;;;;;87.40;36.65;;;;;;;-146.25;100.00;52386.44;2088187;28;26855;-62
2023/05/12 04:17:50;;;;;;;86.68;36.75;;;;;;;-146.25;100.00;52390.50;2089179;28;20061;-62
2023/05/12 04:18:53;;;;;;;92.47;37.13;;;;;;;-146.25;100.00;52412.81;2088860;28;20029;-62
2023/05/12 04:19:55;;;;;;;92.55;38.10;;;;;;;-146.25;100.00;52445.25;2088450;28;34086;-62
2023/05/12 04:20:57;;;;;;;88.38;38.38;;;;;;;-146.25;100.00;52400.63;2088069;28;20846;-62
2023/05/12 04:21:58;;;;;;;91.93;38.30;;;;;;;-146.25;100.00;52408.75;2080125;28;20042;-62
2023/05/12 04:23:06;;;;;;;79.60;35.13;;;;;;;-146.25;100.00;52402.66;2080189;28;20041;-64
2023/05/12 04:24:09;;;;;;;81.35;36.00;;;;;;;-146.25;100.00;52398.59;2087775;28;20037;-62
2023/05/12 04:25:11;;;;;;;90.53;37.47;;;;;;;-146.25;100.00;52400.63;2096161;28;20906;-61
2023/05/12 04:26:14;;;;;;;85.30;34.83;;;;;;;-146.25;100.00;52378.34;2088301;28;20610;-62
2023/05/12 04:27:16;;;;;;;84.60;37.50;;;;;;;-146.25;100.00;52429.03;2080095;28;20054;-62
2023/05/12 04:28:18;;;;;;;72.60;33.30;;;;;;;-146.25;100.00;52378.34;2080138;28;20152;-62
2023/05/12 04:29:21;;;;;;;78.13;36.05;;;;;;;-146.25;100.00;52410.78;2080267;28;20973;-62
2023/05/12 04:30:23;;;;;;;72.68;35.13;;;;;;;-146.25;100.00;52376.31;2080113;28;20053;-62
2023/05/12 04:31:27;;;;;;;77.32;34.63;;;;;;;-146.25;100.00;52422.94;2079985;28;20183;-62
2023/05/12 04:32:33;;;;;;;72.35;34.85;;;;;;;-146.25;100.00;52410.78;2080441;28;20045;-62
2023/05/12 04:33:35;;;;;;;76.13;34.97;;;;;;;-146.25;100.00;52404.69;2080006;28;20042;-62
2023/05/12 04:34:38;;;;;;;80.38;38.08;;;;;;;-146.25;100.00;52414.84;2079821;28;21662;-62
2023/05/12 04:35:40;;;;;;;78.13;35.15;;;;;;;-146.25;100.00;52400.63;2079565;28;20920;-62
2023/05/12 04:36:44;;;;;;;74.65;35.55;;;;;;;-146.25;100.00;52404.69;2080173;28;20038;-62
2023/05/12 04:37:47;;;;;;;71.22;35.13;;;;;;;-146.25;100.00;52420.91;2079654;28;20189;-62
2023/05/12 04:38:50;;;;;;;78.03;36.72;;;;;;;-146.25;100.00;52376.31;2079796;28;20859;-62